首页
METAR-TAF:

METAR-TAF

机场 :

Cranbrook, 不列颠哥伦比亚, 加拿大

纬度: 49-37N, 经度: 115-47W, 海拔: 939米

当前天气观测

该预报发布于1小时和14分钟前的04:00 UTC
风速9节,风向南转西南
温度 12°C
湿度 54%
气压 1005 hPa
能見度: 40.2公里
少量云层高于6000英尺
散云层高于8400英尺
多云层高于21000英尺

METAR: CYXC 250400Z 20009KT 25SM FEW060 SCT084 BKN210 12/03 A2967 RMK SC2AC2CI1 CVCTV CLD EMBD -SHRA OVER RIDGE NE SLP054 DENSITY ALT 3800FT

时间: 23:14 (05:14 UTC)

预报

该预报发布于4小时和34分钟前的00:40 UTC
预报有效从25日的 01点(UTC)到 25日的 13点(UTC)
风速10节,风向东南,有时为20节阵风
能見度: 10公里
散云层高于8000英尺
多云层高于15000英尺
成为
从 25日的 01点(UTC)到 25日的 03点(UTC)
风速8节,风向
从 25日的 1100点(UTC)
风速3节,风向多变
能見度: 10公里
少量云层高于400英尺
多云层高于8000英尺
多云层高于15000英尺
几率 30%
从 25日的 11点(UTC)到 25日的 13点(UTC)
能見度: 3.2公里
多云层高于400英尺
轻雾

TAF: CYXC 250040Z 2501/2513 13010G20KT P6SM SCT080 BKN150 BECMG 2501/2503 19008KT FM251100 VRB03KT P6SM FEW004 BKN080 BKN150 PROB30 2511/2513 2SM BR BKN004 RMK NXT FCST BY 250700Z

超过4000个机场的气象观测和天气预报(METAR&TAF报告)。

可查询的气象台以黄色和红色小点在地图上表示。

将鼠标移到小点上方,可查看气象台名称。

然后点击查看天气观测和预报。

如需切换地图:点击带黑十字的绿色按钮放大地图;点击带横线的绿色按钮缩小地图;或者点击绿色箭头查看邻近地区的地图。


METAR-TAF: